Klik op de webcam foto voor een grotere versieKlik op de webcam foto voor een grotere versie
Of klik hier voor
de webcam video


Weerstation
Wilsele-Leuven:Website of another weatherstation

Weerstation
Wilsele-Putkapel:Website of another weatherstation


Nabijgelegen vliegvelden - METAR rapporten

   
EBBR - Vaartkom-Leuven
Gewijzigd: 27-07-2021 20:20
Gedeeltelijk bewolkt    Wind: ZW 9 km/h
Gedeeltelijk bewolkt
Wind: Wind: ZW 9 km/h
Temperatuur: 18°C
Dauwpunt: 15°C
Vochtigheid: 83%
Barometer: 1010 hPa
Bewolking: Gedeeltelijk bewolkt
Zicht: meer dan 10 km
Bewolking: Gedeeltelijk bewolkt 1066.8 m
EBBR 271820Z 22005KT 9999 SCT035 18/15 Q1010 TEMPO 4000 SHRA
EBAW - Antwerp
Gewijzigd: 27-07-2021 20:20
Licht bewolkt    Wind: WZW 6 km/h
Licht bewolkt
Wind: Wind: WZW 6 km/h
Temperatuur: 17°C
Dauwpunt: 15°C
Vochtigheid: 88%
Barometer: 1010 hPa
Bewolking: Licht bewolkt
Zicht: meer dan 10 km
Bewolking: Licht bewolkt 762 m
EBAW 271820Z 25003KT 190V280 9999 FEW025 17/15 Q1010 NOSIG
EBLG - Liège
Gewijzigd: 27-07-2021 20:20
Gedeeltelijk bewolkt    Wind: ZZW 15 km/h
Gedeeltelijk bewolkt
Wind: Wind: ZZW 15 km/h
Temperatuur: 19°C
Dauwpunt: 14°C
Vochtigheid: 73%
Barometer: 1011 hPa
Bewolking: Gedeeltelijk bewolkt
Zicht: meer dan 10 km
Bewolking: Licht bewolkt 1005.8 m,
Gedeeltelijk bewolkt 1249.7 m
EBLG 271820Z 20008KT 9999 FEW033 SCT041 19/14 Q1011 NOSIG
EBCV - Mons/Bergen
Gewijzigd: 27-07-2021 20:25
Grotendeels bewolkt    Wind: ZW 15 km/h
Grotendeels bewolkt
Wind: Wind: ZW 15 km/h
Temperatuur: 19°C
Dauwpunt: 14°C
Vochtigheid: 73%
Barometer: 1010 hPa
Bewolking: Grotendeels bewolkt
Bewolking: Grotendeels bewolkt 1432.6 m,
Grotendeels bewolkt 3352.8 m
EBCV 271825Z AUTO 23008KT //// BKN047/// BKN110/// 19/14 Q1010 BLU
EHBK - Maastricht
Gewijzigd: 27-07-2021 20:25
Licht bewolkt    Wind: Zuiden 15 km/h
Licht bewolkt
Wind: Wind: Zuiden 15 km/h
Temperatuur: 18°C
Dauwpunt: 15°C
Vochtigheid: 83%
Barometer: 1010 hPa
Bewolking: Licht bewolkt
Zicht: meer dan 10 km
Bewolking: Licht bewolkt 1280.2 m
EHBK 271825Z AUTO 18008KT 9999 FEW042/// 18/15 Q1010 NOSIG
ELLX - Luxemburg
Gewijzigd: 27-07-2021 20:20
Licht bewolkt    Wind: ZZW 11 km/h
Licht bewolkt
Wind: Wind: ZZW 11 km/h
Temperatuur: 15°C
Dauwpunt: 14°C
Vochtigheid: 94%
Barometer: 1013 hPa
Bewolking: Licht bewolkt
Zicht: meer dan 10 km
Bewolking: Licht bewolkt 1219.2 m
ELLX 271820Z 20006KT 9999 FEW040 15/14 Q1013 NOSIG
EBOS - Oostende
Gewijzigd: 27-07-2021 20:20
Licht bewolkt    Wind: Zuiden 13 km/h
Licht bewolkt
Wind: Wind: Zuiden 13 km/h
Temperatuur: 18°C
Dauwpunt: 16°C
Vochtigheid: 88%
Barometer: 1009 hPa
Bewolking: Licht bewolkt
Zicht: meer dan 10 km
Bewolking: Licht bewolkt 457.2 m
EBOS 271820Z 19007KT 9999 FEW015 18/16 Q1009 NOSIG
  

Script ontwikkeld door  Saratoga-weather.org Aangepast voor de template door  Weerstation Leuven

U vindt ons ook hier:

ambientweather.net/

UK Metoffice

WeatherCloud

European Weather Network

Weather Underground

Bernelux Weather Network

AWEKAS

WeatherlinkIP

Citizen Weather Observer Program (CWOP)

HAMweather, WeatherForYou, PWS Weather

Apparatuur in gebruik:

Weer-station
Davis VUE

Weer-programma
Meteobridge

Weer-computer
Nano-SD

Davis VUE

Meteobridge

Nano-SD